sensor_id;sensor_type;location;lat;lon;timestamp;P1;durP1;ratioP1;P2;durP2;ratioP2
14858;SDS011;7521;51.700;6.874;2022-09-25T00:01:55;12.05;;;5.03;;
14858;SDS011;7521;51.700;6.874;2022-09-25T00:05:00;23.02;;;5.43;;
14858;SDS011;7521;51.700;6.874;2022-09-25T00:08:06;13.90;;;3.90;;
14858;SDS011;7521;51.700;6.874;2022-09-25T00:11:13;15.70;;;4.77;;
14858;SDS011;7521;51.700;6.874;2022-09-25T00:14:19;9.40;;;3.57;;
14858;SDS011;7521;51.700;6.874;2022-09-25T00:17:24;12.20;;;4.33;;
14858;SDS011;7521;51.700;6.874;2022-09-25T00:20:29;10.90;;;3.70;;
14858;SDS011;7521;51.700;6.874;2022-09-25T00:23:35;10.83;;;3.53;;
14858;SDS011;7521;51.700;6.874;2022-09-25T00:26:41;13.65;;;3.70;;
14858;SDS011;7521;51.700;6.874;2022-09-25T00:29:46;7.27;;;3.27;;
14858;SDS011;7521;51.700;6.874;2022-09-25T00:32:51;14.03;;;3.00;;
14858;SDS011;7521;51.700;6.874;2022-09-25T00:36:02;7.55;;;3.10;;
14858;SDS011;7521;51.700;6.874;2022-09-25T00:39:08;19.67;;;3.30;;
14858;SDS011;7521;51.700;6.874;2022-09-25T00:42:17;9.52;;;3.03;;
14858;SDS011;7521;51.700;6.874;2022-09-25T00:45:22;10.23;;;3.23;;
14858;SDS011;7521;51.700;6.874;2022-09-25T00:48:28;16.20;;;3.50;;
14858;SDS011;7521;51.700;6.874;2022-09-25T00:51:44;10.70;;;3.43;;
14858;SDS011;7521;51.700;6.874;2022-09-25T00:54:52;12.20;;;3.43;;
14858;SDS011;7521;51.700;6.874;2022-09-25T00:57:57;9.27;;;3.20;;
14858;SDS011;7521;51.700;6.874;2022-09-25T01:01:03;13.50;;;3.97;;
14858;SDS011;7521;51.700;6.874;2022-09-25T01:04:09;8.63;;;3.10;;
14858;SDS011;7521;51.700;6.874;2022-09-25T01:07:17;10.90;;;3.80;;
14858;SDS011;7521;51.700;6.874;2022-09-25T01:10:22;10.07;;;3.63;;
14858;SDS011;7521;51.700;6.874;2022-09-25T01:13:28;10.47;;;4.23;;
14858;SDS011;7521;51.700;6.874;2022-09-25T01:33:13;16.03;;;4.07;;
14858;SDS011;7521;51.700;6.874;2022-09-25T01:36:24;14.93;;;4.13;;
14858;SDS011;7521;51.700;6.874;2022-09-25T01:39:36;9.23;;;3.77;;
14858;SDS011;7521;51.700;6.874;2022-09-25T01:42:44;10.53;;;3.97;;
14858;SDS011;7521;51.700;6.874;2022-09-25T01:46:00;8.20;;;4.17;;
14858;SDS011;7521;51.700;6.874;2022-09-25T01:49:07;12.50;;;3.63;;
14858;SDS011;7521;51.700;6.874;2022-09-25T01:52:14;9.07;;;4.03;;
14858;SDS011;7521;51.700;6.874;2022-09-25T01:55:29;11.47;;;4.50;;
14858;SDS011;7521;51.700;6.874;2022-09-25T01:58:37;9.70;;;4.13;;
14858;SDS011;7521;51.700;6.874;2022-09-25T02:01:44;14.00;;;5.00;;
14858;SDS011;7521;51.700;6.874;2022-09-25T02:04:57;10.60;;;4.57;;
14858;SDS011;7521;51.700;6.874;2022-09-25T02:08:09;8.93;;;4.53;;
14858;SDS011;7521;51.700;6.874;2022-09-25T02:11:16;10.27;;;4.53;;
14858;SDS011;7521;51.700;6.874;2022-09-25T02:14:22;14.82;;;4.70;;
14858;SDS011;7521;51.700;6.874;2022-09-25T02:17:33;8.00;;;4.37;;
14858;SDS011;7521;51.700;6.874;2022-09-25T02:27:14;10.70;;;3.85;;
14858;SDS011;7521;51.700;6.874;2022-09-25T02:30:21;16.57;;;4.83;;
14858;SDS011;7521;51.700;6.874;2022-09-25T02:33:26;17.00;;;5.00;;
14858;SDS011;7521;51.700;6.874;2022-09-25T02:36:31;11.00;;;4.33;;
14858;SDS011;7521;51.700;6.874;2022-09-25T02:39:37;14.60;;;4.20;;
14858;SDS011;7521;51.700;6.874;2022-09-25T02:45:53;12.30;;;4.10;;
14858;SDS011;7521;51.700;6.874;2022-09-25T02:49:09;9.63;;;3.33;;
14858;SDS011;7521;51.700;6.874;2022-09-25T02:52:21;14.73;;;4.33;;
14858;SDS011;7521;51.700;6.874;2022-09-25T02:55:35;10.57;;;3.50;;
14858;SDS011;7521;51.700;6.874;2022-09-25T02:58:43;8.60;;;3.47;;
14858;SDS011;7521;51.700;6.874;2022-09-25T03:01:49;10.50;;;3.27;;
14858;SDS011;7521;51.700;6.874;2022-09-25T03:04:55;12.97;;;3.23;;
14858;SDS011;7521;51.700;6.874;2022-09-25T03:08:02;9.90;;;3.30;;
14858;SDS011;7521;51.700;6.874;2022-09-25T03:11:26;14.80;;;3.87;;
14858;SDS011;7521;51.700;6.874;2022-09-25T03:14:31;10.47;;;3.27;;
14858;SDS011;7521;51.700;6.874;2022-09-25T03:17:37;11.57;;;3.87;;
14858;SDS011;7521;51.700;6.874;2022-09-25T03:20:43;11.00;;;3.60;;
14858;SDS011;7521;51.700;6.874;2022-09-25T03:23:48;10.33;;;3.57;;
14858;SDS011;7521;51.700;6.874;2022-09-25T03:26:54;11.60;;;3.95;;
14858;SDS011;7521;51.700;6.874;2022-09-25T03:29:59;12.85;;;3.72;;
14858;SDS011;7521;51.700;6.874;2022-09-25T03:33:06;7.67;;;3.27;;
14858;SDS011;7521;51.700;6.874;2022-09-25T03:36:15;7.77;;;3.00;;
14858;SDS011;7521;51.700;6.874;2022-09-25T03:39:22;11.30;;;3.03;;
14858;SDS011;7521;51.700;6.874;2022-09-25T03:42:27;13.65;;;3.30;;
14858;SDS011;7521;51.700;6.874;2022-09-25T03:45:32;12.67;;;3.33;;
14858;SDS011;7521;51.700;6.874;2022-09-25T03:48:38;8.65;;;3.00;;
14858;SDS011;7521;51.700;6.874;2022-09-25T03:51:43;9.67;;;3.13;;
14858;SDS011;7521;51.700;6.874;2022-09-25T03:54:49;7.40;;;3.27;;
14858;SDS011;7521;51.700;6.874;2022-09-25T03:57:55;14.80;;;3.80;;
14858;SDS011;7521;51.700;6.874;2022-09-25T04:01:00;10.88;;;3.38;;
14858;SDS011;7521;51.700;6.874;2022-09-25T04:04:05;10.20;;;3.40;;
14858;SDS011;7521;51.700;6.874;2022-09-25T04:07:11;7.18;;;2.78;;
14858;SDS011;7521;51.700;6.874;2022-09-25T04:10:16;9.57;;;3.30;;
14858;SDS011;7521;51.700;6.874;2022-09-25T04:13:21;9.95;;;3.40;;
14858;SDS011;7521;51.700;6.874;2022-09-25T04:16:27;7.63;;;2.93;;
14858;SDS011;7521;51.700;6.874;2022-09-25T04:19:33;8.10;;;3.33;;
14858;SDS011;7521;51.700;6.874;2022-09-25T04:22:38;7.97;;;3.77;;
14858;SDS011;7521;51.700;6.874;2022-09-25T04:25:43;11.70;;;3.50;;
14858;SDS011;7521;51.700;6.874;2022-09-25T04:28:49;10.80;;;3.50;;
14858;SDS011;7521;51.700;6.874;2022-09-25T04:31:54;11.88;;;3.63;;
14858;SDS011;7521;51.700;6.874;2022-09-25T04:35:23;6.60;;;3.47;;
14858;SDS011;7521;51.700;6.874;2022-09-25T04:38:28;11.40;;;3.70;;
14858;SDS011;7521;51.700;6.874;2022-09-25T04:41:36;5.40;;;3.03;;
14858;SDS011;7521;51.700;6.874;2022-09-25T04:44:41;10.63;;;3.85;;
14858;SDS011;7521;51.700;6.874;2022-09-25T04:47:46;11.70;;;3.50;;
14858;SDS011;7521;51.700;6.874;2022-09-25T04:50:51;8.73;;;3.75;;
14858;SDS011;7521;51.700;6.874;2022-09-25T04:53:57;11.90;;;3.25;;
14858;SDS011;7521;51.700;6.874;2022-09-25T04:57:02;10.17;;;3.53;;
14858;SDS011;7521;51.700;6.874;2022-09-25T05:00:07;7.70;;;2.90;;
14858;SDS011;7521;51.700;6.874;2022-09-25T05:03:13;11.07;;;3.27;;
14858;SDS011;7521;51.700;6.874;2022-09-25T05:06:19;8.33;;;3.17;;
14858;SDS011;7521;51.700;6.874;2022-09-25T05:09:25;11.40;;;3.63;;
14858;SDS011;7521;51.700;6.874;2022-09-25T05:12:30;11.38;;;3.47;;
14858;SDS011;7521;51.700;6.874;2022-09-25T05:15:35;10.37;;;3.40;;
14858;SDS011;7521;51.700;6.874;2022-09-25T05:18:41;9.07;;;3.20;;
14858;SDS011;7521;51.700;6.874;2022-09-25T05:21:46;12.50;;;3.10;;
14858;SDS011;7521;51.700;6.874;2022-09-25T05:24:51;9.65;;;3.60;;
14858;SDS011;7521;51.700;6.874;2022-09-25T05:27:58;8.43;;;3.00;;
14858;SDS011;7521;51.700;6.874;2022-09-25T05:31:04;9.63;;;3.40;;
14858;SDS011;7521;51.700;6.874;2022-09-25T05:34:09;10.13;;;3.53;;
14858;SDS011;7521;51.700;6.874;2022-09-25T05:37:14;11.18;;;3.35;;
14858;SDS011;7521;51.700;6.874;2022-09-25T05:40:20;8.40;;;3.20;;
14858;SDS011;7521;51.700;6.874;2022-09-25T05:43:25;11.83;;;3.83;;
14858;SDS011;7521;51.700;6.874;2022-09-25T05:46:37;10.97;;;3.30;;
14858;SDS011;7521;51.700;6.874;2022-09-25T05:49:42;9.60;;;3.67;;
14858;SDS011;7521;51.700;6.874;2022-09-25T05:52:53;7.90;;;3.83;;
14858;SDS011;7521;51.700;6.874;2022-09-25T05:55:59;8.17;;;3.43;;
14858;SDS011;7521;51.700;6.874;2022-09-25T05:59:05;5.47;;;2.90;;
14858;SDS011;7521;51.700;6.874;2022-09-25T06:02:10;10.38;;;3.47;;
14858;SDS011;7521;51.700;6.874;2022-09-25T06:05:16;8.70;;;3.43;;
14858;SDS011;7521;51.700;6.874;2022-09-25T06:08:21;7.13;;;2.80;;
14858;SDS011;7521;51.700;6.874;2022-09-25T06:11:26;5.57;;;2.88;;
14858;SDS011;7521;51.700;6.874;2022-09-25T06:14:32;8.10;;;2.63;;
14858;SDS011;7521;51.700;6.874;2022-09-25T06:17:39;16.10;;;3.83;;
14858;SDS011;7521;51.700;6.874;2022-09-25T06:20:44;6.38;;;3.22;;
14858;SDS011;7521;51.700;6.874;2022-09-25T06:23:49;10.07;;;3.37;;
14858;SDS011;7521;51.700;6.874;2022-09-25T06:26:54;8.68;;;3.95;;
14858;SDS011;7521;51.700;6.874;2022-09-25T06:30:00;11.05;;;4.20;;
14858;SDS011;7521;51.700;6.874;2022-09-25T06:33:06;16.17;;;4.13;;
14858;SDS011;7521;51.700;6.874;2022-09-25T06:36:13;9.23;;;4.40;;
14858;SDS011;7521;51.700;6.874;2022-09-25T06:39:18;8.30;;;3.83;;
14858;SDS011;7521;51.700;6.874;2022-09-25T06:42:23;8.35;;;4.35;;
14858;SDS011;7521;51.700;6.874;2022-09-25T06:45:29;6.60;;;3.60;;
14858;SDS011;7521;51.700;6.874;2022-09-25T06:48:36;7.73;;;3.60;;
14858;SDS011;7521;51.700;6.874;2022-09-25T06:51:41;7.88;;;3.83;;
14858;SDS011;7521;51.700;6.874;2022-09-25T06:54:46;10.98;;;3.78;;
14858;SDS011;7521;51.700;6.874;2022-09-25T06:57:51;9.30;;;3.65;;
14858;SDS011;7521;51.700;6.874;2022-09-25T07:00:57;12.27;;;3.77;;
14858;SDS011;7521;51.700;6.874;2022-09-25T07:04:02;11.95;;;4.00;;
14858;SDS011;7521;51.700;6.874;2022-09-25T07:07:07;16.27;;;4.40;;
14858;SDS011;7521;51.700;6.874;2022-09-25T07:10:13;13.50;;;4.50;;
14858;SDS011;7521;51.700;6.874;2022-09-25T07:13:20;9.53;;;3.70;;
14858;SDS011;7521;51.700;6.874;2022-09-25T07:16:28;11.97;;;4.00;;
14858;SDS011;7521;51.700;6.874;2022-09-25T07:19:34;11.87;;;3.83;;
14858;SDS011;7521;51.700;6.874;2022-09-25T07:22:42;10.68;;;3.78;;
14858;SDS011;7521;51.700;6.874;2022-09-25T07:25:48;9.30;;;3.70;;
14858;SDS011;7521;51.700;6.874;2022-09-25T07:28:57;8.17;;;3.60;;
14858;SDS011;7521;51.700;6.874;2022-09-25T07:32:03;11.23;;;3.97;;
14858;SDS011;7521;51.700;6.874;2022-09-25T07:35:08;12.03;;;3.93;;
14858;SDS011;7521;51.700;6.874;2022-09-25T07:38:13;11.68;;;3.78;;
14858;SDS011;7521;51.700;6.874;2022-09-25T07:41:19;9.83;;;3.40;;
14858;SDS011;7521;51.700;6.874;2022-09-25T07:44:26;12.70;;;4.03;;
14858;SDS011;7521;51.700;6.874;2022-09-25T07:47:31;10.98;;;3.90;;
14858;SDS011;7521;51.700;6.874;2022-09-25T07:50:36;14.45;;;3.80;;
14858;SDS011;7521;51.700;6.874;2022-09-25T07:53:42;13.00;;;4.13;;
14858;SDS011;7521;51.700;6.874;2022-09-25T07:56:48;11.90;;;3.73;;
14858;SDS011;7521;51.700;6.874;2022-09-25T07:59:53;11.87;;;3.60;;
14858;SDS011;7521;51.700;6.874;2022-09-25T08:02:58;7.75;;;3.05;;
14858;SDS011;7521;51.700;6.874;2022-09-25T08:06:05;11.80;;;3.17;;
14858;SDS011;7521;51.700;6.874;2022-09-25T08:09:10;8.23;;;3.13;;
14858;SDS011;7521;51.700;6.874;2022-09-25T08:12:16;8.57;;;3.00;;
14858;SDS011;7521;51.700;6.874;2022-09-25T08:15:21;14.07;;;3.83;;
14858;SDS011;7521;51.700;6.874;2022-09-25T08:18:26;10.73;;;3.30;;
14858;SDS011;7521;51.700;6.874;2022-09-25T08:21:32;7.93;;;2.57;;
14858;SDS011;7521;51.700;6.874;2022-09-25T08:24:38;7.27;;;2.80;;
14858;SDS011;7521;51.700;6.874;2022-09-25T08:27:43;6.65;;;2.63;;
14858;SDS011;7521;51.700;6.874;2022-09-25T08:30:48;7.77;;;2.83;;
14858;SDS011;7521;51.700;6.874;2022-09-25T08:33:54;7.72;;;2.70;;
14858;SDS011;7521;51.700;6.874;2022-09-25T08:36:59;10.27;;;2.63;;
14858;SDS011;7521;51.700;6.874;2022-09-25T08:40:04;6.17;;;2.30;;
14858;SDS011;7521;51.700;6.874;2022-09-25T08:43:10;9.13;;;2.63;;
14858;SDS011;7521;51.700;6.874;2022-09-25T08:46:20;11.83;;;2.67;;
14858;SDS011;7521;51.700;6.874;2022-09-25T08:49:52;9.67;;;2.23;;
14858;SDS011;7521;51.700;6.874;2022-09-25T08:53:09;8.07;;;2.87;;
14858;SDS011;7521;51.700;6.874;2022-09-25T08:56:14;8.60;;;2.50;;
14858;SDS011;7521;51.700;6.874;2022-09-25T08:59:24;10.43;;;2.13;;
14858;SDS011;7521;51.700;6.874;2022-09-25T09:02:35;9.30;;;2.60;;
14858;SDS011;7521;51.700;6.874;2022-09-25T09:05:42;9.30;;;2.23;;
14858;SDS011;7521;51.700;6.874;2022-09-25T09:08:52;7.20;;;2.20;;
14858;SDS011;7521;51.700;6.874;2022-09-25T09:12:00;7.87;;;2.27;;
14858;SDS011;7521;51.700;6.874;2022-09-25T09:15:14;6.40;;;2.10;;
14858;SDS011;7521;51.700;6.874;2022-09-25T09:18:22;8.53;;;2.07;;
14858;SDS011;7521;51.700;6.874;2022-09-25T09:21:32;8.33;;;2.10;;
14858;SDS011;7521;51.700;6.874;2022-09-25T09:28:08;7.67;;;1.67;;
14858;SDS011;7521;51.700;6.874;2022-09-25T09:37:42;9.52;;;1.73;;
14858;SDS011;7521;51.700;6.874;2022-09-25T09:41:01;9.30;;;2.03;;
14858;SDS011;7521;51.700;6.874;2022-09-25T09:54:22;7.87;;;1.27;;
14858;SDS011;7521;51.700;6.874;2022-09-25T09:56:59;7.53;;;1.30;;
14858;SDS011;7521;51.700;6.874;2022-09-25T10:00:06;6.37;;;1.10;;
14858;SDS011;7521;51.700;6.874;2022-09-25T10:03:25;7.73;;;1.30;;
14858;SDS011;7521;51.700;6.874;2022-09-25T10:06:32;3.07;;;1.00;;
14858;SDS011;7521;51.700;6.874;2022-09-25T10:09:38;6.63;;;1.37;;
14858;SDS011;7521;51.700;6.874;2022-09-25T10:12:45;4.68;;;0.73;;
14858;SDS011;7521;51.700;6.874;2022-09-25T10:19:19;7.07;;;1.00;;
14858;SDS011;7521;51.700;6.874;2022-09-25T10:22:26;5.80;;;1.13;;
14858;SDS011;7521;51.700;6.874;2022-09-25T10:25:35;5.87;;;1.57;;
14858;SDS011;7521;51.700;6.874;2022-09-25T10:28:42;4.43;;;0.90;;
14858;SDS011;7521;51.700;6.874;2022-09-25T10:31:49;4.10;;;1.07;;
14858;SDS011;7521;51.700;6.874;2022-09-25T10:35:00;5.20;;;0.70;;
14858;SDS011;7521;51.700;6.874;2022-09-25T10:38:15;3.93;;;0.87;;
14858;SDS011;7521;51.700;6.874;2022-09-25T10:41:20;5.20;;;1.20;;
14858;SDS011;7521;51.700;6.874;2022-09-25T10:44:33;4.00;;;0.80;;
14858;SDS011;7521;51.700;6.874;2022-09-25T10:47:39;5.50;;;0.97;;
14858;SDS011;7521;51.700;6.874;2022-09-25T10:51:05;4.23;;;0.90;;
14858;SDS011;7521;51.700;6.874;2022-09-25T10:54:14;5.60;;;0.70;;
14858;SDS011;7521;51.700;6.874;2022-09-25T11:00:25;5.17;;;1.33;;
14858;SDS011;7521;51.700;6.874;2022-09-25T11:03:34;6.87;;;1.07;;
14858;SDS011;7521;51.700;6.874;2022-09-25T11:06:44;2.63;;;0.70;;
14858;SDS011;7521;51.700;6.874;2022-09-25T11:09:50;4.80;;;1.00;;
14858;SDS011;7521;51.700;6.874;2022-09-25T11:12:56;3.60;;;0.70;;
14858;SDS011;7521;51.700;6.874;2022-09-25T11:16:02;4.33;;;0.70;;
14858;SDS011;7521;51.700;6.874;2022-09-25T11:19:12;5.87;;;1.00;;
14858;SDS011;7521;51.700;6.874;2022-09-25T11:22:19;5.83;;;0.70;;
14858;SDS011;7521;51.700;6.874;2022-09-25T11:25:39;4.67;;;1.00;;
14858;SDS011;7521;51.700;6.874;2022-09-25T11:28:48;5.83;;;0.80;;
14858;SDS011;7521;51.700;6.874;2022-09-25T11:31:57;3.27;;;0.90;;
14858;SDS011;7521;51.700;6.874;2022-09-25T11:38:43;5.07;;;0.50;;
14858;SDS011;7521;51.700;6.874;2022-09-25T11:42:12;2.37;;;0.77;;
14858;SDS011;7521;51.700;6.874;2022-09-25T11:45:19;3.73;;;0.73;;
14858;SDS011;7521;51.700;6.874;2022-09-25T11:48:29;1.50;;;0.40;;
14858;SDS011;7521;51.700;6.874;2022-09-25T11:55:00;3.03;;;0.50;;
14858;SDS011;7521;51.700;6.874;2022-09-25T12:04:33;4.43;;;1.00;;
14858;SDS011;7521;51.700;6.874;2022-09-25T12:23:54;4.27;;;0.90;;
14858;SDS011;7521;51.700;6.874;2022-09-25T12:27:18;2.03;;;0.50;;
14858;SDS011;7521;51.700;6.874;2022-09-25T12:30:27;4.57;;;0.60;;
14858;SDS011;7521;51.700;6.874;2022-09-25T12:33:38;3.87;;;0.63;;
14858;SDS011;7521;51.700;6.874;2022-09-25T12:36:56;2.30;;;0.50;;
14858;SDS011;7521;51.700;6.874;2022-09-25T12:40:03;4.63;;;1.03;;
14858;SDS011;7521;51.700;6.874;2022-09-25T12:43:11;2.80;;;0.67;;
14858;SDS011;7521;51.700;6.874;2022-09-25T12:49:39;2.53;;;0.60;;
14858;SDS011;7521;51.700;6.874;2022-09-25T12:52:51;1.93;;;0.60;;
14858;SDS011;7521;51.700;6.874;2022-09-25T12:56:07;3.03;;;0.80;;
14858;SDS011;7521;51.700;6.874;2022-09-25T12:59:20;6.87;;;1.33;;
14858;SDS011;7521;51.700;6.874;2022-09-25T13:05:32;2.57;;;0.50;;
14858;SDS011;7521;51.700;6.874;2022-09-25T13:09:01;3.80;;;0.70;;
14858;SDS011;7521;51.700;6.874;2022-09-25T13:12:49;1.63;;;0.53;;
14858;SDS011;7521;51.700;6.874;2022-09-25T13:15:31;4.67;;;0.90;;
14858;SDS011;7521;51.700;6.874;2022-09-25T13:18:37;2.37;;;0.53;;
14858;SDS011;7521;51.700;6.874;2022-09-25T13:21:43;1.57;;;0.60;;
14858;SDS011;7521;51.700;6.874;2022-09-25T13:24:50;4.28;;;0.88;;
14858;SDS011;7521;51.700;6.874;2022-09-25T13:27:56;1.87;;;0.60;;
14858;SDS011;7521;51.700;6.874;2022-09-25T13:31:12;3.83;;;0.60;;
14858;SDS011;7521;51.700;6.874;2022-09-25T13:34:24;3.27;;;0.80;;
14858;SDS011;7521;51.700;6.874;2022-09-25T13:37:31;3.27;;;0.80;;
14858;SDS011;7521;51.700;6.874;2022-09-25T13:40:37;6.67;;;0.70;;
14858;SDS011;7521;51.700;6.874;2022-09-25T13:44:17;2.13;;;0.50;;
14858;SDS011;7521;51.700;6.874;2022-09-25T13:57:03;6.73;;;3.10;;
14858;SDS011;7521;51.700;6.874;2022-09-25T14:00:13;7.57;;;3.00;;
14858;SDS011;7521;51.700;6.874;2022-09-25T14:06:34;2.30;;;0.47;;
14858;SDS011;7521;51.700;6.874;2022-09-25T14:09:41;3.43;;;0.80;;
14858;SDS011;7521;51.700;6.874;2022-09-25T14:12:47;2.90;;;0.70;;
14858;SDS011;7521;51.700;6.874;2022-09-25T14:15:55;4.57;;;2.63;;
14858;SDS011;7521;51.700;6.874;2022-09-25T14:19:02;4.10;;;1.10;;
14858;SDS011;7521;51.700;6.874;2022-09-25T14:22:11;3.23;;;1.10;;
14858;SDS011;7521;51.700;6.874;2022-09-25T14:28:33;3.53;;;0.67;;
14858;SDS011;7521;51.700;6.874;2022-09-25T14:31:43;3.57;;;0.80;;
14858;SDS011;7521;51.700;6.874;2022-09-25T14:34:58;3.47;;;0.70;;
14858;SDS011;7521;51.700;6.874;2022-09-25T14:48:10;4.67;;;1.23;;
14858;SDS011;7521;51.700;6.874;2022-09-25T14:51:20;5.67;;;1.10;;
14858;SDS011;7521;51.700;6.874;2022-09-25T14:54:27;3.37;;;0.57;;
14858;SDS011;7521;51.700;6.874;2022-09-25T14:57:34;4.97;;;1.50;;
14858;SDS011;7521;51.700;6.874;2022-09-25T15:00:50;3.30;;;0.73;;
14858;SDS011;7521;51.700;6.874;2022-09-25T15:03:57;4.43;;;0.93;;
14858;SDS011;7521;51.700;6.874;2022-09-25T15:13:30;4.67;;;0.70;;
14858;SDS011;7521;51.700;6.874;2022-09-25T15:16:37;1.87;;;0.53;;
14858;SDS011;7521;51.700;6.874;2022-09-25T15:20:02;3.33;;;0.67;;
14858;SDS011;7521;51.700;6.874;2022-09-25T15:23:11;3.80;;;0.60;;
14858;SDS011;7521;51.700;6.874;2022-09-25T15:26:17;1.47;;;0.63;;
14858;SDS011;7521;51.700;6.874;2022-09-25T15:29:23;3.07;;;0.60;;
14858;SDS011;7521;51.700;6.874;2022-09-25T15:32:34;3.53;;;0.80;;
14858;SDS011;7521;51.700;6.874;2022-09-25T15:35:40;4.33;;;0.60;;
14858;SDS011;7521;51.700;6.874;2022-09-25T15:38:52;3.05;;;0.70;;
14858;SDS011;7521;51.700;6.874;2022-09-25T15:41:58;2.77;;;0.63;;
14858;SDS011;7521;51.700;6.874;2022-09-25T15:45:08;6.63;;;0.70;;
14858;SDS011;7521;51.700;6.874;2022-09-25T15:48:29;3.03;;;0.60;;
14858;SDS011;7521;51.700;6.874;2022-09-25T15:51:36;6.83;;;0.90;;
14858;SDS011;7521;51.700;6.874;2022-09-25T15:54:42;3.27;;;0.50;;
14858;SDS011;7521;51.700;6.874;2022-09-25T15:57:48;3.23;;;0.53;;
14858;SDS011;7521;51.700;6.874;2022-09-25T16:00:58;5.67;;;0.73;;
14858;SDS011;7521;51.700;6.874;2022-09-25T16:04:23;2.80;;;0.90;;
14858;SDS011;7521;51.700;6.874;2022-09-25T16:07:47;3.80;;;0.60;;
14858;SDS011;7521;51.700;6.874;2022-09-25T16:14:25;3.27;;;0.87;;
14858;SDS011;7521;51.700;6.874;2022-09-25T16:17:38;2.83;;;0.83;;
14858;SDS011;7521;51.700;6.874;2022-09-25T16:20:44;5.60;;;1.17;;
14858;SDS011;7521;51.700;6.874;2022-09-25T16:23:50;2.73;;;0.80;;
14858;SDS011;7521;51.700;6.874;2022-09-25T16:26:57;4.63;;;0.90;;
14858;SDS011;7521;51.700;6.874;2022-09-25T16:30:03;5.30;;;1.00;;
14858;SDS011;7521;51.700;6.874;2022-09-25T16:33:21;1.93;;;0.57;;
14858;SDS011;7521;51.700;6.874;2022-09-25T16:36:35;3.70;;;0.77;;
14858;SDS011;7521;51.700;6.874;2022-09-25T16:39:41;5.63;;;0.97;;
14858;SDS011;7521;51.700;6.874;2022-09-25T16:42:46;2.97;;;0.77;;
14858;SDS011;7521;51.700;6.874;2022-09-25T16:45:58;4.47;;;0.97;;
14858;SDS011;7521;51.700;6.874;2022-09-25T16:49:04;3.90;;;0.80;;
14858;SDS011;7521;51.700;6.874;2022-09-25T16:52:13;2.92;;;0.70;;
14858;SDS011;7521;51.700;6.874;2022-09-25T16:55:25;5.33;;;1.00;;
14858;SDS011;7521;51.700;6.874;2022-09-25T16:58:32;2.40;;;1.00;;
14858;SDS011;7521;51.700;6.874;2022-09-25T17:01:38;5.43;;;0.90;;
14858;SDS011;7521;51.700;6.874;2022-09-25T17:04:43;3.63;;;0.83;;
14858;SDS011;7521;51.700;6.874;2022-09-25T17:07:50;1.77;;;0.93;;
14858;SDS011;7521;51.700;6.874;2022-09-25T17:10:55;3.63;;;0.90;;
14858;SDS011;7521;51.700;6.874;2022-09-25T17:14:00;4.07;;;0.97;;
14858;SDS011;7521;51.700;6.874;2022-09-25T17:17:07;2.37;;;0.80;;
14858;SDS011;7521;51.700;6.874;2022-09-25T17:20:13;4.80;;;0.90;;
14858;SDS011;7521;51.700;6.874;2022-09-25T17:23:20;1.77;;;0.90;;
14858;SDS011;7521;51.700;6.874;2022-09-25T17:26:26;8.07;;;1.40;;
14858;SDS011;7521;51.700;6.874;2022-09-25T17:29:31;2.83;;;0.90;;
14858;SDS011;7521;51.700;6.874;2022-09-25T17:32:36;4.57;;;1.00;;
14858;SDS011;7521;51.700;6.874;2022-09-25T17:38:47;4.93;;;2.08;;
14858;SDS011;7521;51.700;6.874;2022-09-25T17:41:52;4.83;;;1.37;;
14858;SDS011;7521;51.700;6.874;2022-09-25T17:44:57;3.13;;;0.97;;
14858;SDS011;7521;51.700;6.874;2022-09-25T17:48:02;6.68;;;2.65;;
14858;SDS011;7521;51.700;6.874;2022-09-25T17:51:12;20.83;;;9.70;;
14858;SDS011;7521;51.700;6.874;2022-09-25T17:54:18;5.60;;;2.40;;
14858;SDS011;7521;51.700;6.874;2022-09-25T17:57:23;3.47;;;1.30;;
14858;SDS011;7521;51.700;6.874;2022-09-25T18:00:31;3.07;;;1.67;;
14858;SDS011;7521;51.700;6.874;2022-09-25T18:03:36;5.70;;;2.45;;
14858;SDS011;7521;51.700;6.874;2022-09-25T18:06:41;4.25;;;2.20;;
14858;SDS011;7521;51.700;6.874;2022-09-25T18:09:47;6.03;;;4.03;;
14858;SDS011;7521;51.700;6.874;2022-09-25T18:12:52;6.30;;;2.55;;
14858;SDS011;7521;51.700;6.874;2022-09-25T18:15:58;6.07;;;3.08;;
14858;SDS011;7521;51.700;6.874;2022-09-25T18:19:03;4.77;;;2.10;;
14858;SDS011;7521;51.700;6.874;2022-09-25T18:22:27;4.20;;;1.60;;
14858;SDS011;7521;51.700;6.874;2022-09-25T18:25:33;2.47;;;0.95;;
14858;SDS011;7521;51.700;6.874;2022-09-25T18:28:39;3.27;;;1.10;;
14858;SDS011;7521;51.700;6.874;2022-09-25T18:31:45;3.83;;;1.02;;
14858;SDS011;7521;51.700;6.874;2022-09-25T18:34:51;6.37;;;1.63;;
14858;SDS011;7521;51.700;6.874;2022-09-25T18:37:56;3.83;;;1.30;;
14858;SDS011;7521;51.700;6.874;2022-09-25T18:41:02;5.77;;;1.10;;
14858;SDS011;7521;51.700;6.874;2022-09-25T18:44:07;4.68;;;1.15;;
14858;SDS011;7521;51.700;6.874;2022-09-25T18:47:12;4.95;;;0.98;;
14858;SDS011;7521;51.700;6.874;2022-09-25T18:50:18;5.07;;;1.10;;
14858;SDS011;7521;51.700;6.874;2022-09-25T18:53:23;2.63;;;0.93;;
14858;SDS011;7521;51.700;6.874;2022-09-25T18:56:28;1.83;;;0.90;;
14858;SDS011;7521;51.700;6.874;2022-09-25T18:59:35;2.47;;;1.30;;
14858;SDS011;7521;51.700;6.874;2022-09-25T19:02:40;2.57;;;1.40;;
14858;SDS011;7521;51.700;6.874;2022-09-25T19:05:56;4.63;;;1.47;;
14858;SDS011;7521;51.700;6.874;2022-09-25T19:09:02;2.20;;;1.03;;
14858;SDS011;7521;51.700;6.874;2022-09-25T19:12:08;2.97;;;1.20;;
14858;SDS011;7521;51.700;6.874;2022-09-25T19:15:20;5.77;;;1.50;;
14858;SDS011;7521;51.700;6.874;2022-09-25T19:18:26;4.75;;;1.45;;
14858;SDS011;7521;51.700;6.874;2022-09-25T19:21:31;3.20;;;2.07;;
14858;SDS011;7521;51.700;6.874;2022-09-25T19:24:37;5.93;;;3.13;;
14858;SDS011;7521;51.700;6.874;2022-09-25T19:27:45;4.73;;;2.73;;
14858;SDS011;7521;51.700;6.874;2022-09-25T19:31:01;8.57;;;3.93;;
14858;SDS011;7521;51.700;6.874;2022-09-25T19:34:06;4.80;;;2.30;;
14858;SDS011;7521;51.700;6.874;2022-09-25T19:37:12;3.57;;;2.23;;
14858;SDS011;7521;51.700;6.874;2022-09-25T19:40:17;3.37;;;2.10;;
14858;SDS011;7521;51.700;6.874;2022-09-25T19:43:41;4.23;;;2.27;;
14858;SDS011;7521;51.700;6.874;2022-09-25T19:46:46;6.20;;;2.10;;
14858;SDS011;7521;51.700;6.874;2022-09-25T19:49:52;3.07;;;1.73;;
14858;SDS011;7521;51.700;6.874;2022-09-25T19:52:57;5.13;;;2.00;;
14858;SDS011;7521;51.700;6.874;2022-09-25T19:56:03;3.73;;;2.10;;
14858;SDS011;7521;51.700;6.874;2022-09-25T19:59:11;2.73;;;1.60;;
14858;SDS011;7521;51.700;6.874;2022-09-25T20:02:16;2.47;;;1.20;;
14858;SDS011;7521;51.700;6.874;2022-09-25T20:05:22;2.57;;;1.07;;
14858;SDS011;7521;51.700;6.874;2022-09-25T20:08:27;1.88;;;1.10;;
14858;SDS011;7521;51.700;6.874;2022-09-25T20:11:33;2.70;;;1.03;;
14858;SDS011;7521;51.700;6.874;2022-09-25T20:14:38;5.23;;;1.03;;
14858;SDS011;7521;51.700;6.874;2022-09-25T20:17:43;1.77;;;1.30;;
14858;SDS011;7521;51.700;6.874;2022-09-25T20:20:49;1.63;;;0.90;;
14858;SDS011;7521;51.700;6.874;2022-09-25T20:23:55;2.80;;;1.30;;
14858;SDS011;7521;51.700;6.874;2022-09-25T20:27:00;5.37;;;1.90;;
14858;SDS011;7521;51.700;6.874;2022-09-25T20:30:05;1.75;;;1.40;;
14858;SDS011;7521;51.700;6.874;2022-09-25T20:33:11;3.30;;;2.00;;
14858;SDS011;7521;51.700;6.874;2022-09-25T20:36:17;3.23;;;2.60;;
14858;SDS011;7521;51.700;6.874;2022-09-25T20:39:22;6.67;;;2.70;;
14858;SDS011;7521;51.700;6.874;2022-09-25T20:42:28;5.00;;;3.57;;
14858;SDS011;7521;51.700;6.874;2022-09-25T20:45:33;7.80;;;4.03;;
14858;SDS011;7521;51.700;6.874;2022-09-25T20:48:42;6.78;;;4.13;;
14858;SDS011;7521;51.700;6.874;2022-09-25T20:51:51;6.80;;;3.90;;
14858;SDS011;7521;51.700;6.874;2022-09-25T20:54:56;6.93;;;4.60;;
14858;SDS011;7521;51.700;6.874;2022-09-25T20:58:01;6.75;;;3.83;;
14858;SDS011;7521;51.700;6.874;2022-09-25T21:01:07;2.28;;;1.58;;
14858;SDS011;7521;51.700;6.874;2022-09-25T21:04:12;4.20;;;1.70;;
14858;SDS011;7521;51.700;6.874;2022-09-25T21:07:21;4.17;;;1.67;;
14858;SDS011;7521;51.700;6.874;2022-09-25T21:10:28;2.93;;;1.47;;
14858;SDS011;7521;51.700;6.874;2022-09-25T21:13:33;6.78;;;2.28;;